sensor_id;sensor_type;location;lat;lon;timestamp;P1;durP1;ratioP1;P2;durP2;ratioP2
67562;SDS011;54392;53.556;49.214;2022-08-07T00:00:17;6.60;;;5.80;;
67562;SDS011;54392;53.556;49.214;2022-08-07T00:02:44;9.93;;;6.18;;
67562;SDS011;54392;53.556;49.214;2022-08-07T00:05:10;8.52;;;6.03;;
67562;SDS011;54392;53.556;49.214;2022-08-07T00:07:39;25.52;;;6.28;;
67562;SDS011;54392;53.556;49.214;2022-08-07T00:10:06;8.18;;;5.43;;
67562;SDS011;54392;53.556;49.214;2022-08-07T00:12:34;10.13;;;5.75;;
67562;SDS011;54392;53.556;49.214;2022-08-07T00:15:01;6.57;;;5.85;;
67562;SDS011;54392;53.556;49.214;2022-08-07T00:17:30;6.43;;;5.62;;
67562;SDS011;54392;53.556;49.214;2022-08-07T00:20:03;6.20;;;5.60;;
67562;SDS011;54392;53.556;49.214;2022-08-07T00:22:30;5.22;;;4.68;;
67562;SDS011;54392;53.556;49.214;2022-08-07T00:25:00;5.80;;;4.78;;
67562;SDS011;54392;53.556;49.214;2022-08-07T00:27:29;5.93;;;5.43;;
67562;SDS011;54392;53.556;49.214;2022-08-07T00:29:57;12.18;;;6.37;;
67562;SDS011;54392;53.556;49.214;2022-08-07T00:32:30;10.23;;;5.25;;
67562;SDS011;54392;53.556;49.214;2022-08-07T00:35:01;5.60;;;4.45;;
67562;SDS011;54392;53.556;49.214;2022-08-07T00:37:30;5.95;;;5.43;;
67562;SDS011;54392;53.556;49.214;2022-08-07T00:39:59;5.57;;;5.07;;
67562;SDS011;54392;53.556;49.214;2022-08-07T00:42:28;5.78;;;5.28;;
67562;SDS011;54392;53.556;49.214;2022-08-07T00:44:58;10.95;;;5.47;;
67562;SDS011;54392;53.556;49.214;2022-08-07T00:47:29;6.20;;;5.57;;
67562;SDS011;54392;53.556;49.214;2022-08-07T00:50:01;10.02;;;6.75;;
67562;SDS011;54392;53.556;49.214;2022-08-07T00:52:28;5.20;;;4.70;;
67562;SDS011;54392;53.556;49.214;2022-08-07T00:54:57;6.37;;;5.43;;
67562;SDS011;54392;53.556;49.214;2022-08-07T00:57:29;15.60;;;7.25;;
67562;SDS011;54392;53.556;49.214;2022-08-07T00:59:57;12.37;;;4.62;;
67562;SDS011;54392;53.556;49.214;2022-08-07T01:02:31;6.50;;;5.82;;
67562;SDS011;54392;53.556;49.214;2022-08-07T01:05:01;7.62;;;6.85;;
67562;SDS011;54392;53.556;49.214;2022-08-07T01:07:31;7.10;;;6.07;;
67562;SDS011;54392;53.556;49.214;2022-08-07T01:10:00;6.45;;;5.75;;
67562;SDS011;54392;53.556;49.214;2022-08-07T01:12:29;5.97;;;5.30;;
67562;SDS011;54392;53.556;49.214;2022-08-07T01:14:55;29.77;;;7.15;;
67562;SDS011;54392;53.556;49.214;2022-08-07T01:17:32;16.27;;;5.95;;
67562;SDS011;54392;53.556;49.214;2022-08-07T01:20:17;9.27;;;6.20;;
67562;SDS011;54392;53.556;49.214;2022-08-07T01:22:51;13.07;;;7.57;;
67562;SDS011;54392;53.556;49.214;2022-08-07T01:25:20;7.05;;;5.60;;
67562;SDS011;54392;53.556;49.214;2022-08-07T01:27:49;6.25;;;5.65;;
67562;SDS011;54392;53.556;49.214;2022-08-07T01:30:16;7.72;;;7.03;;
67562;SDS011;54392;53.556;49.214;2022-08-07T01:32:45;6.68;;;5.85;;
67562;SDS011;54392;53.556;49.214;2022-08-07T01:35:14;27.55;;;7.30;;
67562;SDS011;54392;53.556;49.214;2022-08-07T01:37:41;7.35;;;5.65;;
67562;SDS011;54392;53.556;49.214;2022-08-07T01:40:09;7.68;;;5.62;;
67562;SDS011;54392;53.556;49.214;2022-08-07T01:42:36;9.20;;;6.05;;
67562;SDS011;54392;53.556;49.214;2022-08-07T01:45:11;7.45;;;6.78;;
67562;SDS011;54392;53.556;49.214;2022-08-07T01:47:43;6.28;;;5.70;;
67562;SDS011;54392;53.556;49.214;2022-08-07T01:50:09;6.05;;;5.47;;
67562;SDS011;54392;53.556;49.214;2022-08-07T01:52:41;4.37;;;4.07;;
67562;SDS011;54392;53.556;49.214;2022-08-07T01:55:13;6.72;;;5.25;;
67562;SDS011;54392;53.556;49.214;2022-08-07T01:57:49;5.03;;;4.62;;
67562;SDS011;54392;53.556;49.214;2022-08-07T02:00:17;5.70;;;5.20;;
67562;SDS011;54392;53.556;49.214;2022-08-07T02:05:12;5.53;;;5.07;;
67562;SDS011;54392;53.556;49.214;2022-08-07T02:07:51;12.60;;;5.85;;
67562;SDS011;54392;53.556;49.214;2022-08-07T02:10:22;7.72;;;5.35;;
67562;SDS011;54392;53.556;49.214;2022-08-07T02:12:51;4.97;;;4.47;;
67562;SDS011;54392;53.556;49.214;2022-08-07T02:15:24;9.27;;;5.30;;
67562;SDS011;54392;53.556;49.214;2022-08-07T02:17:54;5.62;;;5.15;;
67562;SDS011;54392;53.556;49.214;2022-08-07T02:20:27;7.53;;;5.32;;
67562;SDS011;54392;53.556;49.214;2022-08-07T02:23:05;19.80;;;6.85;;
67562;SDS011;54392;53.556;49.214;2022-08-07T02:25:35;5.12;;;4.62;;
67562;SDS011;54392;53.556;49.214;2022-08-07T02:28:08;5.55;;;4.25;;
67562;SDS011;54392;53.556;49.214;2022-08-07T02:30:35;15.45;;;5.10;;
67562;SDS011;54392;53.556;49.214;2022-08-07T02:33:07;5.62;;;5.05;;
67562;SDS011;54392;53.556;49.214;2022-08-07T02:35:34;6.12;;;5.12;;
67562;SDS011;54392;53.556;49.214;2022-08-07T02:38:04;16.77;;;5.85;;
67562;SDS011;54392;53.556;49.214;2022-08-07T02:40:34;5.80;;;5.20;;
67562;SDS011;54392;53.556;49.214;2022-08-07T02:43:09;14.45;;;5.12;;
67562;SDS011;54392;53.556;49.214;2022-08-07T02:45:39;7.10;;;6.30;;
67562;SDS011;54392;53.556;49.214;2022-08-07T02:48:10;17.48;;;7.00;;
67562;SDS011;54392;53.556;49.214;2022-08-07T02:50:38;9.85;;;7.85;;
67562;SDS011;54392;53.556;49.214;2022-08-07T02:53:17;10.90;;;8.05;;
67562;SDS011;54392;53.556;49.214;2022-08-07T02:55:56;7.22;;;6.47;;
67562;SDS011;54392;53.556;49.214;2022-08-07T02:58:24;7.25;;;6.12;;
67562;SDS011;54392;53.556;49.214;2022-08-07T03:00:51;9.82;;;8.52;;
67562;SDS011;54392;53.556;49.214;2022-08-07T03:03:22;8.27;;;7.53;;
67562;SDS011;54392;53.556;49.214;2022-08-07T03:05:50;15.98;;;7.82;;
67562;SDS011;54392;53.556;49.214;2022-08-07T03:08:17;9.80;;;6.20;;
67562;SDS011;54392;53.556;49.214;2022-08-07T03:10:44;17.83;;;8.38;;
67562;SDS011;54392;53.556;49.214;2022-08-07T03:13:17;17.50;;;8.60;;
67562;SDS011;54392;53.556;49.214;2022-08-07T03:15:46;13.60;;;6.53;;
67562;SDS011;54392;53.556;49.214;2022-08-07T03:18:15;15.23;;;6.30;;
67562;SDS011;54392;53.556;49.214;2022-08-07T03:20:47;17.85;;;7.18;;
67562;SDS011;54392;53.556;49.214;2022-08-07T03:23:20;11.73;;;7.00;;
67562;SDS011;54392;53.556;49.214;2022-08-07T03:25:46;11.30;;;4.30;;
67562;SDS011;54392;53.556;49.214;2022-08-07T03:28:16;17.02;;;6.55;;
67562;SDS011;54392;53.556;49.214;2022-08-07T03:30:43;20.77;;;8.57;;
67562;SDS011;54392;53.556;49.214;2022-08-07T03:33:13;9.48;;;7.10;;
67562;SDS011;54392;53.556;49.214;2022-08-07T03:35:42;5.80;;;5.22;;
67562;SDS011;54392;53.556;49.214;2022-08-07T03:38:09;8.50;;;7.70;;
67562;SDS011;54392;53.556;49.214;2022-08-07T03:40:39;10.10;;;6.80;;
67562;SDS011;54392;53.556;49.214;2022-08-07T03:43:05;12.32;;;5.78;;
67562;SDS011;54392;53.556;49.214;2022-08-07T03:45:34;9.40;;;7.87;;
67562;SDS011;54392;53.556;49.214;2022-08-07T03:48:07;13.00;;;6.82;;
67562;SDS011;54392;53.556;49.214;2022-08-07T03:50:33;24.58;;;6.03;;
67562;SDS011;54392;53.556;49.214;2022-08-07T03:53:02;11.12;;;6.37;;
67562;SDS011;54392;53.556;49.214;2022-08-07T03:55:32;5.18;;;4.68;;
67562;SDS011;54392;53.556;49.214;2022-08-07T03:57:58;5.93;;;5.32;;
67562;SDS011;54392;53.556;49.214;2022-08-07T04:00:24;7.43;;;4.32;;
67562;SDS011;54392;53.556;49.214;2022-08-07T04:02:53;7.72;;;5.22;;
67562;SDS011;54392;53.556;49.214;2022-08-07T04:05:33;24.75;;;6.25;;
67562;SDS011;54392;53.556;49.214;2022-08-07T04:08:02;5.97;;;5.35;;
67562;SDS011;54392;53.556;49.214;2022-08-07T04:10:31;6.75;;;5.07;;
67562;SDS011;54392;53.556;49.214;2022-08-07T04:12:58;6.55;;;4.80;;
67562;SDS011;54392;53.556;49.214;2022-08-07T04:15:32;5.18;;;4.68;;
67562;SDS011;54392;53.556;49.214;2022-08-07T04:18:00;5.03;;;4.60;;
67562;SDS011;54392;53.556;49.214;2022-08-07T04:20:28;5.12;;;3.80;;
67562;SDS011;54392;53.556;49.214;2022-08-07T04:22:58;8.95;;;5.78;;
67562;SDS011;54392;53.556;49.214;2022-08-07T04:25:26;5.55;;;5.00;;
67562;SDS011;54392;53.556;49.214;2022-08-07T04:27:53;7.90;;;3.65;;
67562;SDS011;54392;53.556;49.214;2022-08-07T04:30:19;5.30;;;4.25;;
67562;SDS011;54392;53.556;49.214;2022-08-07T04:32:49;5.78;;;4.90;;
67562;SDS011;54392;53.556;49.214;2022-08-07T04:35:15;4.03;;;3.47;;
67562;SDS011;54392;53.556;49.214;2022-08-07T04:37:41;5.10;;;4.65;;
67562;SDS011;54392;53.556;49.214;2022-08-07T04:40:08;8.77;;;5.68;;
67562;SDS011;54392;53.556;49.214;2022-08-07T04:42:37;7.90;;;6.35;;
67562;SDS011;54392;53.556;49.214;2022-08-07T04:45:06;5.85;;;5.22;;
67562;SDS011;54392;53.556;49.214;2022-08-07T04:47:49;6.15;;;4.82;;
67562;SDS011;54392;53.556;49.214;2022-08-07T04:50:51;7.87;;;5.75;;
67562;SDS011;54392;53.556;49.214;2022-08-07T04:53:36;6.78;;;4.87;;
67562;SDS011;54392;53.556;49.214;2022-08-07T04:58:46;5.93;;;4.90;;
67562;SDS011;54392;53.556;49.214;2022-08-07T05:07:36;7.65;;;5.80;;
67562;SDS011;54392;53.556;49.214;2022-08-07T05:15:43;16.15;;;6.15;;
67562;SDS011;54392;53.556;49.214;2022-08-07T05:18:21;9.48;;;8.45;;
67562;SDS011;54392;53.556;49.214;2022-08-07T05:20:52;7.37;;;6.30;;
67562;SDS011;54392;53.556;49.214;2022-08-07T05:23:27;23.67;;;10.30;;
67562;SDS011;54392;53.556;49.214;2022-08-07T05:26:04;13.30;;;8.73;;
67562;SDS011;54392;53.556;49.214;2022-08-07T05:28:31;13.25;;;7.87;;
67562;SDS011;54392;53.556;49.214;2022-08-07T05:30:58;23.70;;;12.93;;
67562;SDS011;54392;53.556;49.214;2022-08-07T05:33:24;22.13;;;11.52;;
67562;SDS011;54392;53.556;49.214;2022-08-07T05:35:52;38.15;;;21.00;;
67562;SDS011;54392;53.556;49.214;2022-08-07T05:38:20;26.45;;;17.33;;
67562;SDS011;54392;53.556;49.214;2022-08-07T05:40:49;21.15;;;15.52;;
67562;SDS011;54392;53.556;49.214;2022-08-07T05:43:16;25.42;;;14.77;;
67562;SDS011;54392;53.556;49.214;2022-08-07T05:45:48;23.65;;;14.32;;
67562;SDS011;54392;53.556;49.214;2022-08-07T05:48:15;12.65;;;10.85;;
67562;SDS011;54392;53.556;49.214;2022-08-07T05:50:55;11.85;;;9.50;;
67562;SDS011;54392;53.556;49.214;2022-08-07T05:53:23;13.85;;;11.50;;
67562;SDS011;54392;53.556;49.214;2022-08-07T05:55:52;20.60;;;9.63;;
67562;SDS011;54392;53.556;49.214;2022-08-07T05:58:23;8.80;;;6.87;;
67562;SDS011;54392;53.556;49.214;2022-08-07T06:00:49;11.52;;;7.62;;
67562;SDS011;54392;53.556;49.214;2022-08-07T06:03:21;11.40;;;7.05;;
67562;SDS011;54392;53.556;49.214;2022-08-07T06:05:48;12.18;;;8.38;;
67562;SDS011;54392;53.556;49.214;2022-08-07T06:08:20;17.90;;;10.50;;
67562;SDS011;54392;53.556;49.214;2022-08-07T06:10:51;7.45;;;6.65;;
67562;SDS011;54392;53.556;49.214;2022-08-07T06:13:19;19.70;;;8.57;;
67562;SDS011;54392;53.556;49.214;2022-08-07T06:15:47;15.48;;;6.68;;
67562;SDS011;54392;53.556;49.214;2022-08-07T06:18:14;10.02;;;7.37;;
67562;SDS011;54392;53.556;49.214;2022-08-07T06:20:43;11.20;;;8.70;;
67562;SDS011;54392;53.556;49.214;2022-08-07T06:23:12;7.55;;;6.82;;
67562;SDS011;54392;53.556;49.214;2022-08-07T06:25:42;13.43;;;7.87;;
67562;SDS011;54392;53.556;49.214;2022-08-07T06:28:13;20.27;;;7.62;;
67562;SDS011;54392;53.556;49.214;2022-08-07T06:30:39;6.43;;;5.87;;
67562;SDS011;54392;53.556;49.214;2022-08-07T06:33:05;8.50;;;6.50;;
67562;SDS011;54392;53.556;49.214;2022-08-07T06:35:35;6.65;;;6.05;;
67562;SDS011;54392;53.556;49.214;2022-08-07T06:38:09;8.50;;;6.15;;
67562;SDS011;54392;53.556;49.214;2022-08-07T06:40:46;13.35;;;6.15;;
67562;SDS011;54392;53.556;49.214;2022-08-07T06:43:14;11.88;;;7.85;;
67562;SDS011;54392;53.556;49.214;2022-08-07T06:45:43;10.77;;;8.38;;
67562;SDS011;54392;53.556;49.214;2022-08-07T06:48:09;11.43;;;7.32;;
67562;SDS011;54392;53.556;49.214;2022-08-07T06:50:38;7.20;;;5.65;;
67562;SDS011;54392;53.556;49.214;2022-08-07T06:53:07;6.03;;;5.40;;
67562;SDS011;54392;53.556;49.214;2022-08-07T06:55:40;6.45;;;5.35;;
67562;SDS011;54392;53.556;49.214;2022-08-07T06:58:12;15.82;;;7.30;;
67562;SDS011;54392;53.556;49.214;2022-08-07T07:00:41;22.77;;;7.37;;
67562;SDS011;54392;53.556;49.214;2022-08-07T07:03:09;8.85;;;6.25;;
67562;SDS011;54392;53.556;49.214;2022-08-07T07:05:40;8.48;;;7.30;;
67562;SDS011;54392;53.556;49.214;2022-08-07T07:08:16;15.40;;;6.57;;
67562;SDS011;54392;53.556;49.214;2022-08-07T07:10:47;4.55;;;4.12;;
67562;SDS011;54392;53.556;49.214;2022-08-07T07:13:15;5.50;;;4.45;;
67562;SDS011;54392;53.556;49.214;2022-08-07T07:15:50;5.60;;;5.03;;
67562;SDS011;54392;53.556;49.214;2022-08-07T07:18:27;7.90;;;6.03;;
67562;SDS011;54392;53.556;49.214;2022-08-07T07:21:11;6.47;;;5.80;;
67562;SDS011;54392;53.556;49.214;2022-08-07T07:23:51;8.50;;;7.60;;
67562;SDS011;54392;53.556;49.214;2022-08-07T07:26:21;8.48;;;5.93;;
67562;SDS011;54392;53.556;49.214;2022-08-07T07:28:51;14.95;;;6.60;;
67562;SDS011;54392;53.556;49.214;2022-08-07T07:33:58;4.60;;;4.20;;
67562;SDS011;54392;53.556;49.214;2022-08-07T07:36:31;5.07;;;4.05;;
67562;SDS011;54392;53.556;49.214;2022-08-07T07:38:59;4.15;;;3.78;;
67562;SDS011;54392;53.556;49.214;2022-08-07T07:41:28;7.12;;;6.05;;
67562;SDS011;54392;53.556;49.214;2022-08-07T07:43:54;5.10;;;4.62;;
67562;SDS011;54392;53.556;49.214;2022-08-07T07:46:25;5.22;;;4.15;;
67562;SDS011;54392;53.556;49.214;2022-08-07T07:48:56;5.95;;;5.35;;
67562;SDS011;54392;53.556;49.214;2022-08-07T07:51:24;12.20;;;5.50;;
67562;SDS011;54392;53.556;49.214;2022-08-07T07:53:56;8.48;;;6.80;;
67562;SDS011;54392;53.556;49.214;2022-08-07T07:56:24;8.15;;;6.25;;
67562;SDS011;54392;53.556;49.214;2022-08-07T07:58:52;6.03;;;5.45;;
67562;SDS011;54392;53.556;49.214;2022-08-07T08:01:28;8.38;;;7.00;;
67562;SDS011;54392;53.556;49.214;2022-08-07T08:03:59;6.60;;;4.72;;
67562;SDS011;54392;53.556;49.214;2022-08-07T08:06:28;5.93;;;5.12;;
67562;SDS011;54392;53.556;49.214;2022-08-07T08:08:56;6.10;;;4.95;;
67562;SDS011;54392;53.556;49.214;2022-08-07T08:11:27;6.00;;;4.82;;
67562;SDS011;54392;53.556;49.214;2022-08-07T08:14:02;7.32;;;6.62;;
67562;SDS011;54392;53.556;49.214;2022-08-07T08:16:38;13.60;;;8.00;;
67562;SDS011;54392;53.556;49.214;2022-08-07T08:19:12;12.13;;;7.57;;
67562;SDS011;54392;53.556;49.214;2022-08-07T08:21:44;9.57;;;6.35;;
67562;SDS011;54392;53.556;49.214;2022-08-07T08:24:31;14.48;;;8.57;;
67562;SDS011;54392;53.556;49.214;2022-08-07T08:27:18;11.18;;;9.55;;
67562;SDS011;54392;53.556;49.214;2022-08-07T08:29:51;7.75;;;7.05;;
67562;SDS011;54392;53.556;49.214;2022-08-07T08:32:21;8.05;;;6.53;;
67562;SDS011;54392;53.556;49.214;2022-08-07T08:34:53;7.35;;;6.60;;
67562;SDS011;54392;53.556;49.214;2022-08-07T08:37:19;11.57;;;8.68;;
67562;SDS011;54392;53.556;49.214;2022-08-07T08:39:46;7.15;;;6.45;;
67562;SDS011;54392;53.556;49.214;2022-08-07T08:44:59;8.40;;;4.37;;
67562;SDS011;54392;53.556;49.214;2022-08-07T08:47:35;4.22;;;3.87;;
67562;SDS011;54392;53.556;49.214;2022-08-07T08:50:30;18.27;;;7.37;;
67562;SDS011;54392;53.556;49.214;2022-08-07T08:55:49;16.02;;;9.85;;
67562;SDS011;54392;53.556;49.214;2022-08-07T09:01:25;9.73;;;7.57;;
67562;SDS011;54392;53.556;49.214;2022-08-07T09:03:58;10.65;;;6.15;;
67562;SDS011;54392;53.556;49.214;2022-08-07T09:06:36;6.57;;;5.90;;
67562;SDS011;54392;53.556;49.214;2022-08-07T09:09:19;13.45;;;9.90;;
67562;SDS011;54392;53.556;49.214;2022-08-07T09:12:03;10.55;;;8.93;;
67562;SDS011;54392;53.556;49.214;2022-08-07T09:25:42;4.05;;;3.50;;
67562;SDS011;54392;53.556;49.214;2022-08-07T09:28:21;8.68;;;3.25;;
67562;SDS011;54392;53.556;49.214;2022-08-07T09:31:05;6.28;;;3.28;;
67562;SDS011;54392;53.556;49.214;2022-08-07T09:41:54;5.10;;;3.35;;
67562;SDS011;54392;53.556;49.214;2022-08-07T09:50:12;9.75;;;3.55;;
67562;SDS011;54392;53.556;49.214;2022-08-07T09:52:50;4.45;;;3.97;;
67562;SDS011;54392;53.556;49.214;2022-08-07T09:55:27;3.40;;;2.90;;
67562;SDS011;54392;53.556;49.214;2022-08-07T10:09:58;6.07;;;3.83;;
67562;SDS011;54392;53.556;49.214;2022-08-07T10:21:32;6.37;;;3.37;;
67562;SDS011;54392;53.556;49.214;2022-08-07T10:30:10;4.45;;;2.78;;
67562;SDS011;54392;53.556;49.214;2022-08-07T10:50:30;9.32;;;3.72;;
67562;SDS011;54392;53.556;49.214;2022-08-07T11:02:28;3.67;;;3.37;;
67562;SDS011;54392;53.556;49.214;2022-08-07T11:13:21;6.00;;;3.37;;
67562;SDS011;54392;53.556;49.214;2022-08-07T11:16:01;7.55;;;3.37;;
67562;SDS011;54392;53.556;49.214;2022-08-07T11:18:38;4.32;;;3.75;;
67562;SDS011;54392;53.556;49.214;2022-08-07T11:21:24;5.50;;;4.10;;
67562;SDS011;54392;53.556;49.214;2022-08-07T11:24:04;9.90;;;3.60;;
67562;SDS011;54392;53.556;49.214;2022-08-07T11:26:55;3.50;;;3.15;;
67562;SDS011;54392;53.556;49.214;2022-08-07T11:29:32;2.97;;;2.62;;
67562;SDS011;54392;53.556;49.214;2022-08-07T11:32:14;5.53;;;3.33;;
67562;SDS011;54392;53.556;49.214;2022-08-07T11:34:48;5.60;;;4.12;;
67562;SDS011;54392;53.556;49.214;2022-08-07T11:37:45;8.00;;;3.10;;
67562;SDS011;54392;53.556;49.214;2022-08-07T11:46:04;7.78;;;4.15;;
67562;SDS011;54392;53.556;49.214;2022-08-07T11:54:41;2.78;;;2.55;;
67562;SDS011;54392;53.556;49.214;2022-08-07T11:57:21;2.92;;;2.62;;
67562;SDS011;54392;53.556;49.214;2022-08-07T12:00:03;3.00;;;2.70;;
67562;SDS011;54392;53.556;49.214;2022-08-07T12:08:03;3.65;;;3.35;;
67562;SDS011;54392;53.556;49.214;2022-08-07T12:16:30;2.37;;;2.17;;
67562;SDS011;54392;53.556;49.214;2022-08-07T12:19:06;3.67;;;2.35;;
67562;SDS011;54392;53.556;49.214;2022-08-07T12:21:40;2.60;;;2.25;;
67562;SDS011;54392;53.556;49.214;2022-08-07T12:24:31;2.40;;;2.20;;
67562;SDS011;54392;53.556;49.214;2022-08-07T12:27:39;3.30;;;2.20;;
67562;SDS011;54392;53.556;49.214;2022-08-07T12:30:16;3.62;;;2.50;;
67562;SDS011;54392;53.556;49.214;2022-08-07T12:32:46;3.22;;;2.95;;
67562;SDS011;54392;53.556;49.214;2022-08-07T12:35:17;6.25;;;3.40;;
67562;SDS011;54392;53.556;49.214;2022-08-07T12:37:45;8.20;;;3.60;;
67562;SDS011;54392;53.556;49.214;2022-08-07T12:40:16;8.82;;;2.40;;
67562;SDS011;54392;53.556;49.214;2022-08-07T12:42:46;3.35;;;2.37;;
67562;SDS011;54392;53.556;49.214;2022-08-07T12:45:17;9.63;;;2.92;;
67562;SDS011;54392;53.556;49.214;2022-08-07T12:48:08;4.43;;;2.55;;
67562;SDS011;54392;53.556;49.214;2022-08-07T12:53:36;3.70;;;3.20;;
67562;SDS011;54392;53.556;49.214;2022-08-07T12:56:17;3.70;;;2.62;;
67562;SDS011;54392;53.556;49.214;2022-08-07T12:58:50;2.42;;;2.22;;
67562;SDS011;54392;53.556;49.214;2022-08-07T13:18:06;2.85;;;2.50;;
67562;SDS011;54392;53.556;49.214;2022-08-07T13:20:44;2.42;;;2.20;;
67562;SDS011;54392;53.556;49.214;2022-08-07T13:23:19;3.97;;;2.62;;
67562;SDS011;54392;53.556;49.214;2022-08-07T13:25:55;2.80;;;2.40;;
67562;SDS011;54392;53.556;49.214;2022-08-07T13:28:27;9.88;;;2.58;;
67562;SDS011;54392;53.556;49.214;2022-08-07T13:31:09;3.47;;;1.80;;
67562;SDS011;54392;53.556;49.214;2022-08-07T13:34:05;5.87;;;2.58;;
67562;SDS011;54392;53.556;49.214;2022-08-07T13:37:02;2.95;;;2.37;;
67562;SDS011;54392;53.556;49.214;2022-08-07T13:42:32;2.22;;;1.90;;
67562;SDS011;54392;53.556;49.214;2022-08-07T13:45:02;2.62;;;2.42;;
67562;SDS011;54392;53.556;49.214;2022-08-07T13:47:36;1.83;;;1.73;;
67562;SDS011;54392;53.556;49.214;2022-08-07T13:50:06;2.00;;;1.90;;
67562;SDS011;54392;53.556;49.214;2022-08-07T13:52:37;2.95;;;2.75;;
67562;SDS011;54392;53.556;49.214;2022-08-07T13:55:07;4.68;;;2.90;;
67562;SDS011;54392;53.556;49.214;2022-08-07T13:58:05;7.93;;;2.10;;
67562;SDS011;54392;53.556;49.214;2022-08-07T14:03:23;11.12;;;3.10;;
67562;SDS011;54392;53.556;49.214;2022-08-07T14:06:01;4.15;;;2.72;;
67562;SDS011;54392;53.556;49.214;2022-08-07T14:08:42;1.73;;;1.60;;
67562;SDS011;54392;53.556;49.214;2022-08-07T14:11:14;2.78;;;2.35;;
67562;SDS011;54392;53.556;49.214;2022-08-07T14:13:42;2.42;;;2.22;;
67562;SDS011;54392;53.556;49.214;2022-08-07T14:16:19;3.20;;;2.90;;
67562;SDS011;54392;53.556;49.214;2022-08-07T14:21:31;2.87;;;2.10;;
67562;SDS011;54392;53.556;49.214;2022-08-07T14:24:00;4.00;;;2.28;;
67562;SDS011;54392;53.556;49.214;2022-08-07T14:26:34;2.60;;;2.40;;
67562;SDS011;54392;53.556;49.214;2022-08-07T14:29:16;7.57;;;2.08;;
67562;SDS011;54392;53.556;49.214;2022-08-07T14:31:46;2.22;;;2.10;;
67562;SDS011;54392;53.556;49.214;2022-08-07T14:34:14;1.80;;;1.65;;
67562;SDS011;54392;53.556;49.214;2022-08-07T14:36:50;6.30;;;3.37;;
67562;SDS011;54392;53.556;49.214;2022-08-07T14:39:17;3.72;;;2.85;;
67562;SDS011;54392;53.556;49.214;2022-08-07T14:41:43;2.90;;;1.62;;
67562;SDS011;54392;53.556;49.214;2022-08-07T14:44:14;10.07;;;2.42;;
67562;SDS011;54392;53.556;49.214;2022-08-07T14:46:41;10.32;;;2.17;;
67562;SDS011;54392;53.556;49.214;2022-08-07T14:49:10;2.95;;;1.67;;
67562;SDS011;54392;53.556;49.214;2022-08-07T14:54:07;1.73;;;1.60;;
67562;SDS011;54392;53.556;49.214;2022-08-07T14:56:38;5.70;;;2.03;;
67562;SDS011;54392;53.556;49.214;2022-08-07T14:59:05;3.17;;;1.90;;
67562;SDS011;54392;53.556;49.214;2022-08-07T15:01:34;3.92;;;2.70;;
67562;SDS011;54392;53.556;49.214;2022-08-07T15:04:02;1.75;;;1.60;;
67562;SDS011;54392;53.556;49.214;2022-08-07T15:06:37;10.60;;;2.33;;
67562;SDS011;54392;53.556;49.214;2022-08-07T15:09:08;29.48;;;2.85;;
67562;SDS011;54392;53.556;49.214;2022-08-07T15:11:38;1.95;;;1.85;;
67562;SDS011;54392;53.556;49.214;2022-08-07T15:14:12;6.85;;;3.00;;
67562;SDS011;54392;53.556;49.214;2022-08-07T15:16:45;1.87;;;1.77;;
67562;SDS011;54392;53.556;49.214;2022-08-07T15:19:14;2.40;;;1.83;;
67562;SDS011;54392;53.556;49.214;2022-08-07T15:21:45;2.80;;;2.45;;
67562;SDS011;54392;53.556;49.214;2022-08-07T15:26:56;2.10;;;1.90;;
67562;SDS011;54392;53.556;49.214;2022-08-07T15:29:33;2.08;;;1.80;;
67562;SDS011;54392;53.556;49.214;2022-08-07T15:32:02;8.00;;;1.80;;
67562;SDS011;54392;53.556;49.214;2022-08-07T15:37:28;6.68;;;2.05;;
67562;SDS011;54392;53.556;49.214;2022-08-07T15:40:02;7.55;;;1.62;;
67562;SDS011;54392;53.556;49.214;2022-08-07T15:45:02;3.33;;;2.10;;
67562;SDS011;54392;53.556;49.214;2022-08-07T15:47:34;3.92;;;2.45;;
67562;SDS011;54392;53.556;49.214;2022-08-07T15:50:04;5.95;;;2.65;;
67562;SDS011;54392;53.556;49.214;2022-08-07T15:52:31;2.47;;;2.12;;
67562;SDS011;54392;53.556;49.214;2022-08-07T15:54:59;1.98;;;1.87;;
67562;SDS011;54392;53.556;49.214;2022-08-07T15:57:33;2.50;;;2.30;;
67562;SDS011;54392;53.556;49.214;2022-08-07T16:00:07;2.05;;;1.95;;
67562;SDS011;54392;53.556;49.214;2022-08-07T16:02:37;2.20;;;2.08;;
67562;SDS011;54392;53.556;49.214;2022-08-07T16:05:10;2.15;;;1.95;;
67562;SDS011;54392;53.556;49.214;2022-08-07T16:07:46;3.28;;;2.97;;
67562;SDS011;54392;53.556;49.214;2022-08-07T16:10:15;2.95;;;2.65;;
67562;SDS011;54392;53.556;49.214;2022-08-07T16:18:41;4.12;;;3.05;;
67562;SDS011;54392;53.556;49.214;2022-08-07T16:21:41;2.22;;;2.03;;
67562;SDS011;54392;53.556;49.214;2022-08-07T16:30:19;2.60;;;2.40;;
67562;SDS011;54392;53.556;49.214;2022-08-07T16:32:49;3.97;;;3.20;;
67562;SDS011;54392;53.556;49.214;2022-08-07T16:35:36;8.90;;;4.83;;
67562;SDS011;54392;53.556;49.214;2022-08-07T16:41:09;8.80;;;4.80;;
67562;SDS011;54392;53.556;49.214;2022-08-07T17:03:33;11.32;;;5.70;;
67562;SDS011;54392;53.556;49.214;2022-08-07T17:09:17;9.90;;;6.60;;
67562;SDS011;54392;53.556;49.214;2022-08-07T17:11:58;8.13;;;7.30;;
67562;SDS011;54392;53.556;49.214;2022-08-07T17:17:05;17.33;;;12.80;;
67562;SDS011;54392;53.556;49.214;2022-08-07T17:19:41;17.30;;;9.45;;
67562;SDS011;54392;53.556;49.214;2022-08-07T17:22:13;23.70;;;12.02;;
67562;SDS011;54392;53.556;49.214;2022-08-07T17:24:48;17.20;;;12.65;;
67562;SDS011;54392;53.556;49.214;2022-08-07T17:27:21;11.35;;;9.48;;
67562;SDS011;54392;53.556;49.214;2022-08-07T17:32:38;24.87;;;10.38;;
67562;SDS011;54392;53.556;49.214;2022-08-07T17:43:22;17.55;;;12.50;;
67562;SDS011;54392;53.556;49.214;2022-08-07T17:45:57;18.58;;;13.27;;
67562;SDS011;54392;53.556;49.214;2022-08-07T17:49:02;18.67;;;14.35;;
67562;SDS011;54392;53.556;49.214;2022-08-07T17:54:36;13.73;;;12.27;;
67562;SDS011;54392;53.556;49.214;2022-08-07T17:57:36;21.65;;;12.43;;
67562;SDS011;54392;53.556;49.214;2022-08-07T18:00:08;14.70;;;10.30;;
67562;SDS011;54392;53.556;49.214;2022-08-07T18:02:39;21.42;;;11.77;;
67562;SDS011;54392;53.556;49.214;2022-08-07T18:05:13;16.35;;;9.50;;
67562;SDS011;54392;53.556;49.214;2022-08-07T18:07:45;16.58;;;10.65;;
67562;SDS011;54392;53.556;49.214;2022-08-07T18:13:53;21.00;;;11.05;;
67562;SDS011;54392;53.556;49.214;2022-08-07T18:16:33;13.15;;;9.88;;
67562;SDS011;54392;53.556;49.214;2022-08-07T18:21:55;13.23;;;9.45;;
67562;SDS011;54392;53.556;49.214;2022-08-07T18:24:27;17.87;;;12.43;;
67562;SDS011;54392;53.556;49.214;2022-08-07T18:27:18;25.27;;;12.15;;
67562;SDS011;54392;53.556;49.214;2022-08-07T18:30:05;17.90;;;13.65;;
67562;SDS011;54392;53.556;49.214;2022-08-07T18:33:15;14.30;;;12.05;;
67562;SDS011;54392;53.556;49.214;2022-08-07T18:38:47;19.27;;;12.52;;
67562;SDS011;54392;53.556;49.214;2022-08-07T19:01:31;13.55;;;11.60;;
67562;SDS011;54392;53.556;49.214;2022-08-07T19:04:13;18.83;;;10.95;;
67562;SDS011;54392;53.556;49.214;2022-08-07T19:07:09;13.65;;;8.43;;
67562;SDS011;54392;53.556;49.214;2022-08-07T19:15:22;7.45;;;6.25;;
67562;SDS011;54392;53.556;49.214;2022-08-07T19:18:17;12.32;;;8.57;;
67562;SDS011;54392;53.556;49.214;2022-08-07T19:24:12;7.20;;;5.15;;
67562;SDS011;54392;53.556;49.214;2022-08-07T19:26:47;6.90;;;6.20;;
67562;SDS011;54392;53.556;49.214;2022-08-07T19:29:19;10.70;;;6.53;;
67562;SDS011;54392;53.556;49.214;2022-08-07T19:31:57;10.02;;;6.55;;